sensor_id;sensor_type;location;lat;lon;timestamp;P1;durP1;ratioP1;P2;durP2;ratioP2
55312;SDS011;46892;45.668;11.756;2024-02-21T00:02:11;37.40;;;25.27;;
55312;SDS011;46892;45.668;11.756;2024-02-21T00:04:37;32.97;;;23.33;;
55312;SDS011;46892;45.668;11.756;2024-02-21T00:07:03;30.60;;;21.60;;
55312;SDS011;46892;45.668;11.756;2024-02-21T00:09:30;30.57;;;21.53;;
55312;SDS011;46892;45.668;11.756;2024-02-21T00:11:55;25.23;;;20.10;;
55312;SDS011;46892;45.668;11.756;2024-02-21T00:14:21;27.87;;;20.47;;
55312;SDS011;46892;45.668;11.756;2024-02-21T00:16:47;27.30;;;19.87;;
55312;SDS011;46892;45.668;11.756;2024-02-21T00:19:13;25.13;;;19.37;;
55312;SDS011;46892;45.668;11.756;2024-02-21T00:21:39;27.53;;;19.97;;
55312;SDS011;46892;45.668;11.756;2024-02-21T00:24:05;25.90;;;20.37;;
55312;SDS011;46892;45.668;11.756;2024-02-21T00:26:31;27.60;;;19.60;;
55312;SDS011;46892;45.668;11.756;2024-02-21T00:28:57;27.67;;;20.40;;
55312;SDS011;46892;45.668;11.756;2024-02-21T00:31:23;27.60;;;19.13;;
55312;SDS011;46892;45.668;11.756;2024-02-21T00:33:49;28.00;;;20.00;;
55312;SDS011;46892;45.668;11.756;2024-02-21T00:36:15;27.73;;;19.70;;
55312;SDS011;46892;45.668;11.756;2024-02-21T00:38:41;29.50;;;21.97;;
55312;SDS011;46892;45.668;11.756;2024-02-21T00:41:07;29.33;;;20.80;;
55312;SDS011;46892;45.668;11.756;2024-02-21T00:43:32;25.87;;;19.17;;
55312;SDS011;46892;45.668;11.756;2024-02-21T00:45:58;27.23;;;20.33;;
55312;SDS011;46892;45.668;11.756;2024-02-21T00:48:24;26.57;;;19.83;;
55312;SDS011;46892;45.668;11.756;2024-02-21T00:50:50;26.53;;;18.93;;
55312;SDS011;46892;45.668;11.756;2024-02-21T00:53:15;26.83;;;19.67;;
55312;SDS011;46892;45.668;11.756;2024-02-21T00:55:41;24.80;;;18.43;;
55312;SDS011;46892;45.668;11.756;2024-02-21T00:58:08;24.53;;;17.73;;
55312;SDS011;46892;45.668;11.756;2024-02-21T01:00:34;24.40;;;17.87;;
55312;SDS011;46892;45.668;11.756;2024-02-21T01:02:59;27.97;;;18.73;;
55312;SDS011;46892;45.668;11.756;2024-02-21T01:05:25;26.37;;;18.87;;
55312;SDS011;46892;45.668;11.756;2024-02-21T01:07:53;26.70;;;18.40;;
55312;SDS011;46892;45.668;11.756;2024-02-21T01:10:18;23.50;;;17.00;;
55312;SDS011;46892;45.668;11.756;2024-02-21T01:12:44;27.30;;;18.50;;
55312;SDS011;46892;45.668;11.756;2024-02-21T01:15:10;23.87;;;17.00;;
55312;SDS011;46892;45.668;11.756;2024-02-21T01:17:36;23.00;;;17.07;;
55312;SDS011;46892;45.668;11.756;2024-02-21T01:20:03;26.20;;;19.63;;
55312;SDS011;46892;45.668;11.756;2024-02-21T01:22:32;26.80;;;19.63;;
55312;SDS011;46892;45.668;11.756;2024-02-21T01:24:58;28.10;;;19.73;;
55312;SDS011;46892;45.668;11.756;2024-02-21T01:27:23;25.73;;;18.83;;
55312;SDS011;46892;45.668;11.756;2024-02-21T01:29:49;28.63;;;20.30;;
55312;SDS011;46892;45.668;11.756;2024-02-21T01:32:15;25.63;;;18.73;;
55312;SDS011;46892;45.668;11.756;2024-02-21T01:34:41;25.00;;;17.67;;
55312;SDS011;46892;45.668;11.756;2024-02-21T01:37:07;24.87;;;18.37;;
55312;SDS011;46892;45.668;11.756;2024-02-21T01:39:33;25.10;;;18.50;;
55312;SDS011;46892;45.668;11.756;2024-02-21T01:41:59;25.20;;;18.00;;
55312;SDS011;46892;45.668;11.756;2024-02-21T01:44:25;27.53;;;18.57;;
55312;SDS011;46892;45.668;11.756;2024-02-21T01:46:51;26.30;;;18.17;;
55312;SDS011;46892;45.668;11.756;2024-02-21T01:49:18;26.17;;;18.27;;
55312;SDS011;46892;45.668;11.756;2024-02-21T01:51:45;23.40;;;17.40;;
55312;SDS011;46892;45.668;11.756;2024-02-21T01:54:13;23.00;;;17.03;;
55312;SDS011;46892;45.668;11.756;2024-02-21T01:56:40;24.20;;;15.53;;
55312;SDS011;46892;45.668;11.756;2024-02-21T01:59:08;23.03;;;16.07;;
55312;SDS011;46892;45.668;11.756;2024-02-21T02:01:34;22.93;;;16.53;;
55312;SDS011;46892;45.668;11.756;2024-02-21T02:04:00;20.90;;;14.87;;
55312;SDS011;46892;45.668;11.756;2024-02-21T02:06:26;19.87;;;14.63;;
55312;SDS011;46892;45.668;11.756;2024-02-21T02:08:52;18.80;;;14.07;;
55312;SDS011;46892;45.668;11.756;2024-02-21T02:11:19;18.43;;;13.70;;
55312;SDS011;46892;45.668;11.756;2024-02-21T02:13:45;16.83;;;11.00;;
55312;SDS011;46892;45.668;11.756;2024-02-21T02:16:11;16.93;;;11.50;;
55312;SDS011;46892;45.668;11.756;2024-02-21T02:18:36;13.50;;;9.10;;
55312;SDS011;46892;45.668;11.756;2024-02-21T02:21:04;19.03;;;9.47;;
55312;SDS011;46892;45.668;11.756;2024-02-21T02:23:32;15.85;;;11.15;;
55312;SDS011;46892;45.668;11.756;2024-02-21T02:25:59;14.80;;;9.40;;
55312;SDS011;46892;45.668;11.756;2024-02-21T02:28:26;12.63;;;8.70;;
55312;SDS011;46892;45.668;11.756;2024-02-21T02:30:52;11.37;;;7.27;;
55312;SDS011;46892;45.668;11.756;2024-02-21T02:33:18;14.87;;;7.60;;
55312;SDS011;46892;45.668;11.756;2024-02-21T02:35:44;14.13;;;6.47;;
55312;SDS011;46892;45.668;11.756;2024-02-21T02:38:10;12.40;;;7.20;;
55312;SDS011;46892;45.668;11.756;2024-02-21T02:40:37;10.53;;;6.70;;
55312;SDS011;46892;45.668;11.756;2024-02-21T02:43:03;9.33;;;6.50;;
55312;SDS011;46892;45.668;11.756;2024-02-21T02:45:29;10.57;;;6.23;;
55312;SDS011;46892;45.668;11.756;2024-02-21T02:47:55;9.00;;;5.83;;
55312;SDS011;46892;45.668;11.756;2024-02-21T02:50:24;11.03;;;6.27;;
55312;SDS011;46892;45.668;11.756;2024-02-21T02:52:51;9.90;;;6.03;;
55312;SDS011;46892;45.668;11.756;2024-02-21T02:55:17;9.90;;;5.70;;
55312;SDS011;46892;45.668;11.756;2024-02-21T02:57:43;8.17;;;5.20;;
55312;SDS011;46892;45.668;11.756;2024-02-21T03:00:12;9.37;;;5.67;;
55312;SDS011;46892;45.668;11.756;2024-02-21T03:02:40;7.88;;;4.97;;
55312;SDS011;46892;45.668;11.756;2024-02-21T03:05:16;8.10;;;4.80;;
55312;SDS011;46892;45.668;11.756;2024-02-21T03:07:43;7.77;;;5.00;;
55312;SDS011;46892;45.668;11.756;2024-02-21T03:10:10;8.07;;;5.10;;
55312;SDS011;46892;45.668;11.756;2024-02-21T03:12:36;7.97;;;4.70;;
55312;SDS011;46892;45.668;11.756;2024-02-21T03:15:03;10.07;;;4.80;;
55312;SDS011;46892;45.668;11.756;2024-02-21T03:17:29;7.40;;;4.33;;
55312;SDS011;46892;45.668;11.756;2024-02-21T03:19:55;7.50;;;4.40;;
55312;SDS011;46892;45.668;11.756;2024-02-21T03:22:21;8.23;;;3.97;;
55312;SDS011;46892;45.668;11.756;2024-02-21T03:24:47;7.03;;;4.10;;
55312;SDS011;46892;45.668;11.756;2024-02-21T03:27:13;8.33;;;4.50;;
55312;SDS011;46892;45.668;11.756;2024-02-21T03:29:39;9.27;;;3.93;;
55312;SDS011;46892;45.668;11.756;2024-02-21T03:32:05;9.23;;;4.87;;
55312;SDS011;46892;45.668;11.756;2024-02-21T03:34:30;6.03;;;4.07;;
55312;SDS011;46892;45.668;11.756;2024-02-21T03:36:56;6.27;;;3.80;;
55312;SDS011;46892;45.668;11.756;2024-02-21T03:39:22;5.30;;;3.60;;
55312;SDS011;46892;45.668;11.756;2024-02-21T03:41:48;7.17;;;3.70;;
55312;SDS011;46892;45.668;11.756;2024-02-21T03:44:14;6.23;;;4.27;;
55312;SDS011;46892;45.668;11.756;2024-02-21T03:46:39;7.47;;;4.07;;
55312;SDS011;46892;45.668;11.756;2024-02-21T03:49:06;6.90;;;3.60;;
55312;SDS011;46892;45.668;11.756;2024-02-21T03:51:32;8.03;;;4.40;;
55312;SDS011;46892;45.668;11.756;2024-02-21T03:53:57;7.03;;;4.20;;
55312;SDS011;46892;45.668;11.756;2024-02-21T03:56:23;8.33;;;3.97;;
55312;SDS011;46892;45.668;11.756;2024-02-21T03:58:49;9.37;;;4.43;;
55312;SDS011;46892;45.668;11.756;2024-02-21T04:01:15;8.90;;;4.20;;
55312;SDS011;46892;45.668;11.756;2024-02-21T04:03:42;7.13;;;4.13;;
55312;SDS011;46892;45.668;11.756;2024-02-21T04:06:09;7.83;;;4.50;;
55312;SDS011;46892;45.668;11.756;2024-02-21T04:08:35;6.90;;;4.23;;
55312;SDS011;46892;45.668;11.756;2024-02-21T04:11:01;9.30;;;4.63;;
55312;SDS011;46892;45.668;11.756;2024-02-21T04:13:27;6.20;;;3.57;;
55312;SDS011;46892;45.668;11.756;2024-02-21T04:15:53;8.03;;;3.97;;
55312;SDS011;46892;45.668;11.756;2024-02-21T04:18:19;7.67;;;4.00;;
55312;SDS011;46892;45.668;11.756;2024-02-21T04:20:44;8.20;;;3.70;;
55312;SDS011;46892;45.668;11.756;2024-02-21T04:23:10;8.17;;;3.33;;
55312;SDS011;46892;45.668;11.756;2024-02-21T04:25:36;9.67;;;3.47;;
55312;SDS011;46892;45.668;11.756;2024-02-21T04:28:02;7.40;;;3.00;;
55312;SDS011;46892;45.668;11.756;2024-02-21T04:30:28;8.97;;;3.30;;
55312;SDS011;46892;45.668;11.756;2024-02-21T04:32:54;4.57;;;2.50;;
55312;SDS011;46892;45.668;11.756;2024-02-21T04:35:19;4.83;;;2.60;;
55312;SDS011;46892;45.668;11.756;2024-02-21T04:37:45;5.60;;;2.90;;
55312;SDS011;46892;45.668;11.756;2024-02-21T04:40:11;4.27;;;2.67;;
55312;SDS011;46892;45.668;11.756;2024-02-21T04:42:38;5.23;;;2.67;;
55312;SDS011;46892;45.668;11.756;2024-02-21T04:45:04;4.60;;;2.53;;
55312;SDS011;46892;45.668;11.756;2024-02-21T04:47:30;5.07;;;2.50;;
55312;SDS011;46892;45.668;11.756;2024-02-21T04:49:56;5.83;;;2.83;;
55312;SDS011;46892;45.668;11.756;2024-02-21T04:52:21;4.17;;;2.90;;
55312;SDS011;46892;45.668;11.756;2024-02-21T04:54:47;4.63;;;2.80;;
55312;SDS011;46892;45.668;11.756;2024-02-21T04:57:13;4.70;;;2.67;;
55312;SDS011;46892;45.668;11.756;2024-02-21T04:59:43;4.90;;;2.80;;
55312;SDS011;46892;45.668;11.756;2024-02-21T05:02:10;5.10;;;3.10;;
55312;SDS011;46892;45.668;11.756;2024-02-21T05:04:36;5.23;;;3.60;;
55312;SDS011;46892;45.668;11.756;2024-02-21T05:07:03;7.27;;;3.93;;
55312;SDS011;46892;45.668;11.756;2024-02-21T05:09:30;5.03;;;3.40;;
55312;SDS011;46892;45.668;11.756;2024-02-21T05:11:56;5.43;;;3.40;;
55312;SDS011;46892;45.668;11.756;2024-02-21T05:14:24;5.40;;;3.03;;
55312;SDS011;46892;45.668;11.756;2024-02-21T05:16:50;7.87;;;5.17;;
55312;SDS011;46892;45.668;11.756;2024-02-21T05:19:15;6.40;;;4.00;;
55312;SDS011;46892;45.668;11.756;2024-02-21T05:21:41;5.77;;;3.30;;
55312;SDS011;46892;45.668;11.756;2024-02-21T05:24:07;6.47;;;2.93;;
55312;SDS011;46892;45.668;11.756;2024-02-21T05:26:32;5.00;;;2.50;;
55312;SDS011;46892;45.668;11.756;2024-02-21T05:28:58;3.80;;;2.27;;
55312;SDS011;46892;45.668;11.756;2024-02-21T05:31:24;6.40;;;3.73;;
55312;SDS011;46892;45.668;11.756;2024-02-21T05:33:50;7.63;;;4.60;;
55312;SDS011;46892;45.668;11.756;2024-02-21T05:36:16;5.53;;;3.30;;
55312;SDS011;46892;45.668;11.756;2024-02-21T05:38:42;4.43;;;2.67;;
55312;SDS011;46892;45.668;11.756;2024-02-21T05:41:08;4.90;;;2.33;;
55312;SDS011;46892;45.668;11.756;2024-02-21T05:43:33;4.57;;;3.07;;
55312;SDS011;46892;45.668;11.756;2024-02-21T05:45:59;6.80;;;2.97;;
55312;SDS011;46892;45.668;11.756;2024-02-21T05:48:25;6.43;;;2.67;;
55312;SDS011;46892;45.668;11.756;2024-02-21T05:50:51;5.63;;;2.53;;
55312;SDS011;46892;45.668;11.756;2024-02-21T05:53:16;7.87;;;2.37;;
55312;SDS011;46892;45.668;11.756;2024-02-21T05:55:42;4.47;;;2.57;;
55312;SDS011;46892;45.668;11.756;2024-02-21T05:58:08;4.70;;;2.43;;
55312;SDS011;46892;45.668;11.756;2024-02-21T06:00:38;4.03;;;2.38;;
55312;SDS011;46892;45.668;11.756;2024-02-21T06:03:04;4.53;;;2.33;;
55312;SDS011;46892;45.668;11.756;2024-02-21T06:05:30;5.10;;;2.87;;
55312;SDS011;46892;45.668;11.756;2024-02-21T06:07:56;6.00;;;2.90;;
55312;SDS011;46892;45.668;11.756;2024-02-21T06:10:22;5.10;;;2.67;;
55312;SDS011;46892;45.668;11.756;2024-02-21T06:12:48;5.50;;;2.90;;
55312;SDS011;46892;45.668;11.756;2024-02-21T06:15:14;6.37;;;3.23;;
55312;SDS011;46892;45.668;11.756;2024-02-21T06:17:40;8.87;;;3.40;;
55312;SDS011;46892;45.668;11.756;2024-02-21T06:20:05;8.50;;;3.10;;
55312;SDS011;46892;45.668;11.756;2024-02-21T06:22:32;5.50;;;2.50;;
55312;SDS011;46892;45.668;11.756;2024-02-21T06:24:58;12.53;;;3.17;;
55312;SDS011;46892;45.668;11.756;2024-02-21T06:27:24;6.23;;;2.53;;
55312;SDS011;46892;45.668;11.756;2024-02-21T06:29:50;7.17;;;3.20;;
55312;SDS011;46892;45.668;11.756;2024-02-21T06:32:16;4.83;;;2.30;;
55312;SDS011;46892;45.668;11.756;2024-02-21T06:34:42;8.87;;;2.50;;
55312;SDS011;46892;45.668;11.756;2024-02-21T06:37:08;4.37;;;2.60;;
55312;SDS011;46892;45.668;11.756;2024-02-21T06:39:34;5.97;;;2.90;;
55312;SDS011;46892;45.668;11.756;2024-02-21T06:42:02;8.83;;;3.53;;
55312;SDS011;46892;45.668;11.756;2024-02-21T06:44:28;5.90;;;2.60;;
55312;SDS011;46892;45.668;11.756;2024-02-21T06:46:54;5.33;;;2.63;;
55312;SDS011;46892;45.668;11.756;2024-02-21T06:49:20;4.93;;;2.27;;
55312;SDS011;46892;45.668;11.756;2024-02-21T06:51:45;6.20;;;2.63;;
55312;SDS011;46892;45.668;11.756;2024-02-21T06:54:11;8.53;;;3.33;;
55312;SDS011;46892;45.668;11.756;2024-02-21T06:56:37;8.17;;;4.07;;
55312;SDS011;46892;45.668;11.756;2024-02-21T06:59:05;14.47;;;2.03;;
55312;SDS011;46892;45.668;11.756;2024-02-21T07:01:30;4.53;;;2.50;;
55312;SDS011;46892;45.668;11.756;2024-02-21T07:03:56;4.10;;;2.40;;
55312;SDS011;46892;45.668;11.756;2024-02-21T07:06:23;8.57;;;3.17;;
55312;SDS011;46892;45.668;11.756;2024-02-21T07:08:49;7.67;;;3.37;;
55312;SDS011;46892;45.668;11.756;2024-02-21T07:11:14;6.00;;;3.70;;
55312;SDS011;46892;45.668;11.756;2024-02-21T07:13:40;8.10;;;3.47;;
55312;SDS011;46892;45.668;11.756;2024-02-21T07:16:06;8.33;;;3.90;;
55312;SDS011;46892;45.668;11.756;2024-02-21T07:18:32;5.17;;;2.87;;
55312;SDS011;46892;45.668;11.756;2024-02-21T07:20:58;5.60;;;2.53;;
55312;SDS011;46892;45.668;11.756;2024-02-21T07:23:24;5.77;;;3.00;;
55312;SDS011;46892;45.668;11.756;2024-02-21T07:25:50;8.03;;;3.40;;
55312;SDS011;46892;45.668;11.756;2024-02-21T07:28:16;5.60;;;3.50;;
55312;SDS011;46892;45.668;11.756;2024-02-21T07:30:42;5.93;;;3.37;;
55312;SDS011;46892;45.668;11.756;2024-02-21T07:33:08;6.23;;;4.13;;
55312;SDS011;46892;45.668;11.756;2024-02-21T07:35:34;8.00;;;5.00;;
55312;SDS011;46892;45.668;11.756;2024-02-21T07:38:03;10.43;;;5.57;;
55312;SDS011;46892;45.668;11.756;2024-02-21T07:40:30;10.23;;;5.77;;
55312;SDS011;46892;45.668;11.756;2024-02-21T07:42:55;9.60;;;5.10;;
55312;SDS011;46892;45.668;11.756;2024-02-21T07:45:21;8.10;;;4.67;;
55312;SDS011;46892;45.668;11.756;2024-02-21T07:47:49;10.27;;;5.33;;
55312;SDS011;46892;45.668;11.756;2024-02-21T07:50:15;8.53;;;4.70;;
55312;SDS011;46892;45.668;11.756;2024-02-21T07:52:41;8.90;;;4.70;;
55312;SDS011;46892;45.668;11.756;2024-02-21T07:55:08;6.20;;;3.90;;
55312;SDS011;46892;45.668;11.756;2024-02-21T07:57:35;7.13;;;4.03;;
55312;SDS011;46892;45.668;11.756;2024-02-21T08:00:02;7.03;;;4.00;;
55312;SDS011;46892;45.668;11.756;2024-02-21T08:02:29;13.33;;;7.13;;
55312;SDS011;46892;45.668;11.756;2024-02-21T08:04:55;13.17;;;6.67;;
55312;SDS011;46892;45.668;11.756;2024-02-21T08:07:21;23.33;;;12.43;;
55312;SDS011;46892;45.668;11.756;2024-02-21T08:09:46;20.97;;;11.70;;
55312;SDS011;46892;45.668;11.756;2024-02-21T08:12:12;23.17;;;10.57;;
55312;SDS011;46892;45.668;11.756;2024-02-21T08:14:38;19.40;;;9.87;;
55312;SDS011;46892;45.668;11.756;2024-02-21T08:17:04;9.33;;;4.83;;
55312;SDS011;46892;45.668;11.756;2024-02-21T08:19:29;5.80;;;3.13;;
55312;SDS011;46892;45.668;11.756;2024-02-21T08:21:55;5.03;;;2.30;;
55312;SDS011;46892;45.668;11.756;2024-02-21T08:24:21;6.13;;;3.00;;
55312;SDS011;46892;45.668;11.756;2024-02-21T08:26:48;6.50;;;3.73;;
55312;SDS011;46892;45.668;11.756;2024-02-21T08:29:13;5.60;;;2.53;;
55312;SDS011;46892;45.668;11.756;2024-02-21T08:31:39;9.57;;;3.27;;
55312;SDS011;46892;45.668;11.756;2024-02-21T08:34:05;6.83;;;3.00;;
55312;SDS011;46892;45.668;11.756;2024-02-21T08:36:31;4.23;;;2.47;;
55312;SDS011;46892;45.668;11.756;2024-02-21T08:39:01;4.78;;;1.95;;
55312;SDS011;46892;45.668;11.756;2024-02-21T08:41:30;3.13;;;2.13;;
55312;SDS011;46892;45.668;11.756;2024-02-21T08:43:56;4.17;;;2.07;;
55312;SDS011;46892;45.668;11.756;2024-02-21T08:46:22;4.20;;;2.00;;
55312;SDS011;46892;45.668;11.756;2024-02-21T08:48:49;4.97;;;2.40;;
55312;SDS011;46892;45.668;11.756;2024-02-21T08:51:16;7.50;;;3.23;;
55312;SDS011;46892;45.668;11.756;2024-02-21T08:53:43;5.00;;;3.00;;
55312;SDS011;46892;45.668;11.756;2024-02-21T08:56:10;5.53;;;3.33;;
55312;SDS011;46892;45.668;11.756;2024-02-21T08:58:36;5.83;;;3.50;;
55312;SDS011;46892;45.668;11.756;2024-02-21T09:01:03;7.03;;;3.93;;
55312;SDS011;46892;45.668;11.756;2024-02-21T09:03:35;8.27;;;4.80;;
55312;SDS011;46892;45.668;11.756;2024-02-21T09:06:07;8.40;;;4.73;;
55312;SDS011;46892;45.668;11.756;2024-02-21T09:11:00;10.40;;;5.87;;
55312;SDS011;46892;45.668;11.756;2024-02-21T09:13:27;12.47;;;6.90;;
55312;SDS011;46892;45.668;11.756;2024-02-21T09:15:52;13.33;;;6.53;;
55312;SDS011;46892;45.668;11.756;2024-02-21T09:18:18;10.00;;;6.20;;
55312;SDS011;46892;45.668;11.756;2024-02-21T09:20:44;9.77;;;6.37;;
55312;SDS011;46892;45.668;11.756;2024-02-21T09:23:10;8.33;;;5.80;;
55312;SDS011;46892;45.668;11.756;2024-02-21T09:25:37;8.50;;;5.80;;
55312;SDS011;46892;45.668;11.756;2024-02-21T09:28:03;9.43;;;6.10;;
55312;SDS011;46892;45.668;11.756;2024-02-21T09:30:31;9.80;;;5.73;;
55312;SDS011;46892;45.668;11.756;2024-02-21T09:32:57;8.87;;;5.80;;
55312;SDS011;46892;45.668;11.756;2024-02-21T09:35:26;9.97;;;6.10;;
55312;SDS011;46892;45.668;11.756;2024-02-21T09:37:53;8.10;;;5.43;;
55312;SDS011;46892;45.668;11.756;2024-02-21T09:40:19;8.47;;;5.87;;
55312;SDS011;46892;45.668;11.756;2024-02-21T09:42:46;11.37;;;6.13;;
55312;SDS011;46892;45.668;11.756;2024-02-21T09:50:41;8.63;;;5.17;;
55312;SDS011;46892;45.668;11.756;2024-02-21T09:53:09;6.00;;;4.10;;
55312;SDS011;46892;45.668;11.756;2024-02-21T09:55:39;8.93;;;5.73;;
55312;SDS011;46892;45.668;11.756;2024-02-21T09:58:07;8.50;;;5.63;;
55312;SDS011;46892;45.668;11.756;2024-02-21T10:00:35;8.10;;;5.77;;
55312;SDS011;46892;45.668;11.756;2024-02-21T10:03:01;7.40;;;5.30;;
55312;SDS011;46892;45.668;11.756;2024-02-21T10:05:32;7.93;;;5.17;;
55312;SDS011;46892;45.668;11.756;2024-02-21T10:08:03;9.20;;;5.93;;
55312;SDS011;46892;45.668;11.756;2024-02-21T10:10:30;7.40;;;5.03;;
55312;SDS011;46892;45.668;11.756;2024-02-21T10:13:05;9.57;;;5.17;;
55312;SDS011;46892;45.668;11.756;2024-02-21T10:15:32;8.30;;;5.60;;
55312;SDS011;46892;45.668;11.756;2024-02-21T10:18:02;8.07;;;5.27;;
55312;SDS011;46892;45.668;11.756;2024-02-21T10:20:32;8.03;;;4.73;;
55312;SDS011;46892;45.668;11.756;2024-02-21T10:23:04;7.20;;;4.73;;
55312;SDS011;46892;45.668;11.756;2024-02-21T10:25:34;6.47;;;4.40;;
55312;SDS011;46892;45.668;11.756;2024-02-21T10:28:01;8.10;;;4.93;;
55312;SDS011;46892;45.668;11.756;2024-02-21T10:30:28;7.07;;;5.00;;
55312;SDS011;46892;45.668;11.756;2024-02-21T10:32:54;8.50;;;5.40;;
55312;SDS011;46892;45.668;11.756;2024-02-21T10:37:56;7.50;;;5.00;;
55312;SDS011;46892;45.668;11.756;2024-02-21T10:40:23;7.63;;;5.10;;
55312;SDS011;46892;45.668;11.756;2024-02-21T10:42:51;7.57;;;4.73;;
55312;SDS011;46892;45.668;11.756;2024-02-21T10:45:25;7.87;;;5.33;;
55312;SDS011;46892;45.668;11.756;2024-02-21T10:48:01;8.23;;;5.03;;
55312;SDS011;46892;45.668;11.756;2024-02-21T10:56:22;8.67;;;5.50;;
55312;SDS011;46892;45.668;11.756;2024-02-21T10:58:49;8.43;;;5.70;;
55312;SDS011;46892;45.668;11.756;2024-02-21T11:01:15;8.50;;;5.83;;
55312;SDS011;46892;45.668;11.756;2024-02-21T11:03:44;10.87;;;5.80;;
55312;SDS011;46892;45.668;11.756;2024-02-21T11:06:11;9.60;;;6.27;;
55312;SDS011;46892;45.668;11.756;2024-02-21T11:08:38;8.63;;;5.80;;
55312;SDS011;46892;45.668;11.756;2024-02-21T11:11:04;7.77;;;5.50;;
55312;SDS011;46892;45.668;11.756;2024-02-21T11:13:40;8.40;;;5.30;;
55312;SDS011;46892;45.668;11.756;2024-02-21T11:16:21;9.23;;;5.97;;
55312;SDS011;46892;45.668;11.756;2024-02-21T11:18:48;8.60;;;6.07;;
55312;SDS011;46892;45.668;11.756;2024-02-21T11:21:14;8.60;;;6.27;;
55312;SDS011;46892;45.668;11.756;2024-02-21T11:23:40;9.53;;;6.80;;
55312;SDS011;46892;45.668;11.756;2024-02-21T11:26:09;9.30;;;6.57;;
55312;SDS011;46892;45.668;11.756;2024-02-21T11:28:44;10.60;;;6.80;;
55312;SDS011;46892;45.668;11.756;2024-02-21T11:31:13;15.70;;;7.27;;
55312;SDS011;46892;45.668;11.756;2024-02-21T11:33:40;9.87;;;7.00;;
55312;SDS011;46892;45.668;11.756;2024-02-21T11:36:07;10.57;;;6.70;;
55312;SDS011;46892;45.668;11.756;2024-02-21T11:38:33;13.07;;;8.20;;
55312;SDS011;46892;45.668;11.756;2024-02-21T11:40:59;13.30;;;7.97;;
55312;SDS011;46892;45.668;11.756;2024-02-21T11:43:25;10.73;;;7.77;;
55312;SDS011;46892;45.668;11.756;2024-02-21T11:45:51;14.23;;;8.43;;
55312;SDS011;46892;45.668;11.756;2024-02-21T11:48:27;12.03;;;8.07;;
55312;SDS011;46892;45.668;11.756;2024-02-21T11:50:54;13.97;;;8.07;;
55312;SDS011;46892;45.668;11.756;2024-02-21T11:53:20;13.73;;;8.83;;
55312;SDS011;46892;45.668;11.756;2024-02-21T11:55:47;13.17;;;9.43;;
55312;SDS011;46892;45.668;11.756;2024-02-21T11:58:13;11.93;;;8.80;;
55312;SDS011;46892;45.668;11.756;2024-02-21T12:00:38;12.47;;;8.37;;
55312;SDS011;46892;45.668;11.756;2024-02-21T12:03:05;15.43;;;10.33;;
55312;SDS011;46892;45.668;11.756;2024-02-21T12:05:31;13.87;;;10.20;;
55312;SDS011;46892;45.668;11.756;2024-02-21T12:07:57;15.03;;;10.57;;
55312;SDS011;46892;45.668;11.756;2024-02-21T12:10:23;16.37;;;10.37;;
55312;SDS011;46892;45.668;11.756;2024-02-21T12:12:51;17.43;;;12.40;;
55312;SDS011;46892;45.668;11.756;2024-02-21T12:15:19;19.33;;;13.60;;
55312;SDS011;46892;45.668;11.756;2024-02-21T12:17:45;16.83;;;12.13;;
55312;SDS011;46892;45.668;11.756;2024-02-21T12:20:11;18.00;;;12.67;;
55312;SDS011;46892;45.668;11.756;2024-02-21T12:22:37;15.50;;;11.23;;
55312;SDS011;46892;45.668;11.756;2024-02-21T12:25:16;16.87;;;11.57;;
55312;SDS011;46892;45.668;11.756;2024-02-21T12:27:47;17.27;;;12.17;;
55312;SDS011;46892;45.668;11.756;2024-02-21T12:30:14;17.07;;;11.97;;
55312;SDS011;46892;45.668;11.756;2024-02-21T12:32:40;17.77;;;12.97;;
55312;SDS011;46892;45.668;11.756;2024-02-21T12:35:06;19.10;;;13.53;;
55312;SDS011;46892;45.668;11.756;2024-02-21T12:37:32;19.53;;;14.60;;
55312;SDS011;46892;45.668;11.756;2024-02-21T12:39:58;24.37;;;17.90;;
55312;SDS011;46892;45.668;11.756;2024-02-21T12:42:24;42.00;;;30.83;;
55312;SDS011;46892;45.668;11.756;2024-02-21T12:44:51;27.00;;;19.10;;
55312;SDS011;46892;45.668;11.756;2024-02-21T12:47:18;20.13;;;15.63;;
55312;SDS011;46892;45.668;11.756;2024-02-21T12:49:45;19.23;;;14.43;;
55312;SDS011;46892;45.668;11.756;2024-02-21T12:52:11;22.50;;;15.93;;
55312;SDS011;46892;45.668;11.756;2024-02-21T12:54:36;26.50;;;18.40;;
55312;SDS011;46892;45.668;11.756;2024-02-21T12:57:03;24.03;;;18.10;;
55312;SDS011;46892;45.668;11.756;2024-02-21T12:59:29;31.77;;;23.80;;
55312;SDS011;46892;45.668;11.756;2024-02-21T13:01:55;36.87;;;23.43;;
55312;SDS011;46892;45.668;11.756;2024-02-21T13:04:21;30.50;;;22.33;;
55312;SDS011;46892;45.668;11.756;2024-02-21T13:06:48;27.40;;;19.93;;
55312;SDS011;46892;45.668;11.756;2024-02-21T13:09:16;28.57;;;21.37;;
55312;SDS011;46892;45.668;11.756;2024-02-21T13:11:43;25.13;;;18.87;;
55312;SDS011;46892;45.668;11.756;2024-02-21T13:14:11;22.83;;;16.87;;
55312;SDS011;46892;45.668;11.756;2024-02-21T13:16:37;24.10;;;16.50;;
55312;SDS011;46892;45.668;11.756;2024-02-21T13:19:08;22.33;;;17.03;;
55312;SDS011;46892;45.668;11.756;2024-02-21T13:21:35;20.47;;;14.67;;
55312;SDS011;46892;45.668;11.756;2024-02-21T13:24:01;20.60;;;15.30;;
55312;SDS011;46892;45.668;11.756;2024-02-21T13:26:27;20.83;;;15.00;;
55312;SDS011;46892;45.668;11.756;2024-02-21T13:28:53;24.27;;;16.53;;
55312;SDS011;46892;45.668;11.756;2024-02-21T13:31:19;22.03;;;16.50;;
55312;SDS011;46892;45.668;11.756;2024-02-21T13:33:45;21.93;;;16.37;;
55312;SDS011;46892;45.668;11.756;2024-02-21T13:36:11;22.43;;;16.33;;
55312;SDS011;46892;45.668;11.756;2024-02-21T13:38:37;20.63;;;15.43;;
55312;SDS011;46892;45.668;11.756;2024-02-21T13:41:06;20.60;;;15.87;;
55312;SDS011;46892;45.668;11.756;2024-02-21T13:43:32;21.17;;;14.80;;
55312;SDS011;46892;45.668;11.756;2024-02-21T13:45:59;21.40;;;15.13;;
55312;SDS011;46892;45.668;11.756;2024-02-21T13:48:26;20.83;;;15.40;;
55312;SDS011;46892;45.668;11.756;2024-02-21T13:50:52;20.63;;;15.50;;
55312;SDS011;46892;45.668;11.756;2024-02-21T13:53:18;22.30;;;15.33;;
55312;SDS011;46892;45.668;11.756;2024-02-21T13:55:44;22.87;;;15.40;;
55312;SDS011;46892;45.668;11.756;2024-02-21T13:58:10;21.47;;;15.63;;
55312;SDS011;46892;45.668;11.756;2024-02-21T14:00:36;21.87;;;15.63;;
55312;SDS011;46892;45.668;11.756;2024-02-21T14:03:02;21.97;;;15.43;;
55312;SDS011;46892;45.668;11.756;2024-02-21T14:05:28;19.80;;;15.17;;
55312;SDS011;46892;45.668;11.756;2024-02-21T14:07:54;23.13;;;16.00;;
55312;SDS011;46892;45.668;11.756;2024-02-21T14:10:20;20.67;;;14.97;;
55312;SDS011;46892;45.668;11.756;2024-02-21T14:12:46;19.80;;;14.83;;
55312;SDS011;46892;45.668;11.756;2024-02-21T14:15:15;22.20;;;15.40;;
55312;SDS011;46892;45.668;11.756;2024-02-21T14:17:43;20.27;;;15.73;;
55312;SDS011;46892;45.668;11.756;2024-02-21T14:20:09;23.63;;;15.93;;
55312;SDS011;46892;45.668;11.756;2024-02-21T14:22:35;19.73;;;15.23;;
55312;SDS011;46892;45.668;11.756;2024-02-21T14:25:03;21.13;;;15.20;;
55312;SDS011;46892;45.668;11.756;2024-02-21T14:27:32;23.20;;;15.95;;
55312;SDS011;46892;45.668;11.756;2024-02-21T14:29:58;22.50;;;16.30;;
55312;SDS011;46892;45.668;11.756;2024-02-21T14:32:24;20.80;;;15.93;;
55312;SDS011;46892;45.668;11.756;2024-02-21T14:34:49;22.00;;;15.83;;
55312;SDS011;46892;45.668;11.756;2024-02-21T14:37:15;23.23;;;16.70;;